sensor_id;sensor_type;location;lat;lon;timestamp;pressure;altitude;pressure_sealevel;temperature;humidity
35577;BME280;21680;52.400;16.920;2022-10-16T00:01:09;100561.25;;;12.89;84.19
35577;BME280;21680;52.400;16.920;2022-10-16T00:03:36;100558.35;;;12.87;84.21
35577;BME280;21680;52.400;16.920;2022-10-16T00:06:03;100555.75;;;12.85;84.32
35577;BME280;21680;52.400;16.920;2022-10-16T00:08:29;100551.44;;;12.85;84.25
35577;BME280;21680;52.400;16.920;2022-10-16T00:11:00;100542.89;;;12.84;84.23
35577;BME280;21680;52.400;16.920;2022-10-16T00:13:25;100535.73;;;12.84;84.32
35577;BME280;21680;52.400;16.920;2022-10-16T00:15:50;100531.61;;;12.84;84.28
35577;BME280;21680;52.400;16.920;2022-10-16T00:18:17;100535.27;;;12.86;84.40
35577;BME280;21680;52.400;16.920;2022-10-16T00:20:42;100532.16;;;12.87;84.49
35577;BME280;21680;52.400;16.920;2022-10-16T00:23:07;100536.05;;;12.87;84.40
35577;BME280;21680;52.400;16.920;2022-10-16T00:25:33;100533.33;;;12.88;84.48
35577;BME280;21680;52.400;16.920;2022-10-16T00:28:00;100540.63;;;12.89;84.42
35577;BME280;21680;52.400;16.920;2022-10-16T00:30:25;100543.08;;;12.90;84.55
35577;BME280;21680;52.400;16.920;2022-10-16T00:32:52;100547.60;;;12.93;84.58
35577;BME280;21680;52.400;16.920;2022-10-16T00:35:17;100555.05;;;12.95;84.57
35577;BME280;21680;52.400;16.920;2022-10-16T00:37:43;100558.35;;;12.96;84.69
35577;BME280;21680;52.400;16.920;2022-10-16T00:40:08;100561.35;;;12.97;84.66
35577;BME280;21680;52.400;16.920;2022-10-16T00:42:34;100563.19;;;13.00;84.77
35577;BME280;21680;52.400;16.920;2022-10-16T00:45:04;100561.20;;;13.03;84.72
35577;BME280;21680;52.400;16.920;2022-10-16T00:47:44;100556.55;;;13.06;84.80
35577;BME280;21680;52.400;16.920;2022-10-16T00:50:18;100554.46;;;13.08;84.78
35577;BME280;21680;52.400;16.920;2022-10-16T00:52:49;100550.55;;;13.10;84.82
35577;BME280;21680;52.400;16.920;2022-10-16T00:55:15;100550.27;;;13.12;84.91
35577;BME280;21680;52.400;16.920;2022-10-16T00:57:42;100552.29;;;13.14;84.90
35577;BME280;21680;52.400;16.920;2022-10-16T01:00:10;100557.06;;;13.16;84.85
35577;BME280;21680;52.400;16.920;2022-10-16T01:02:36;100552.62;;;13.19;84.90
35577;BME280;21680;52.400;16.920;2022-10-16T01:05:02;100551.58;;;13.21;84.98
35577;BME280;21680;52.400;16.920;2022-10-16T01:07:50;100556.08;;;13.24;84.99
35577;BME280;21680;52.400;16.920;2022-10-16T01:10:40;100554.20;;;13.26;84.91
35577;BME280;21680;52.400;16.920;2022-10-16T01:13:15;100557.83;;;13.28;85.03
35577;BME280;21680;52.400;16.920;2022-10-16T01:15:59;100557.31;;;13.31;85.08
35577;BME280;21680;52.400;16.920;2022-10-16T01:18:56;100564.37;;;13.33;85.02
35577;BME280;21680;52.400;16.920;2022-10-16T01:21:23;100565.92;;;13.35;84.95
35577;BME280;21680;52.400;16.920;2022-10-16T01:24:06;100558.52;;;13.36;84.97
35577;BME280;21680;52.400;16.920;2022-10-16T01:27:15;100557.80;;;13.35;84.92
35577;BME280;21680;52.400;16.920;2022-10-16T01:32:31;100558.48;;;13.39;85.12
35577;BME280;21680;52.400;16.920;2022-10-16T01:35:02;100556.34;;;13.42;85.02
35577;BME280;21680;52.400;16.920;2022-10-16T01:37:36;100557.91;;;13.43;85.02
35577;BME280;21680;52.400;16.920;2022-10-16T01:40:07;100559.77;;;13.45;85.18
35577;BME280;21680;52.400;16.920;2022-10-16T01:42:37;100560.60;;;13.46;85.12
35577;BME280;21680;52.400;16.920;2022-10-16T01:45:06;100557.65;;;13.48;85.13
35577;BME280;21680;52.400;16.920;2022-10-16T01:47:34;100567.14;;;13.48;85.02
35577;BME280;21680;52.400;16.920;2022-10-16T01:50:02;100571.17;;;13.50;85.14
35577;BME280;21680;52.400;16.920;2022-10-16T01:52:32;100571.42;;;13.52;85.12
35577;BME280;21680;52.400;16.920;2022-10-16T01:55:02;100576.55;;;13.53;85.11
35577;BME280;21680;52.400;16.920;2022-10-16T01:57:29;100576.26;;;13.55;85.19
35577;BME280;21680;52.400;16.920;2022-10-16T01:59:58;100577.25;;;13.56;85.18
35577;BME280;21680;52.400;16.920;2022-10-16T02:02:27;100573.01;;;13.58;85.18
35577;BME280;21680;52.400;16.920;2022-10-16T02:05:00;100574.02;;;13.59;85.13
35577;BME280;21680;52.400;16.920;2022-10-16T02:07:26;100568.92;;;13.61;85.27
35577;BME280;21680;52.400;16.920;2022-10-16T02:09:51;100565.59;;;13.62;85.29
35577;BME280;21680;52.400;16.920;2022-10-16T02:12:57;100564.52;;;13.65;85.25
35577;BME280;21680;52.400;16.920;2022-10-16T02:15:24;100568.59;;;13.66;85.14
35577;BME280;21680;52.400;16.920;2022-10-16T02:17:49;100573.67;;;13.69;85.16
35577;BME280;21680;52.400;16.920;2022-10-16T02:20:14;100578.54;;;13.71;85.23
35577;BME280;21680;52.400;16.920;2022-10-16T02:22:43;100583.96;;;13.74;85.18
35577;BME280;21680;52.400;16.920;2022-10-16T02:25:28;100582.98;;;13.76;85.14
35577;BME280;21680;52.400;16.920;2022-10-16T02:28:01;100584.10;;;13.78;85.24
35577;BME280;21680;52.400;16.920;2022-10-16T02:30:36;100575.52;;;13.80;85.28
35577;BME280;21680;52.400;16.920;2022-10-16T02:33:03;100573.91;;;13.80;85.24
35577;BME280;21680;52.400;16.920;2022-10-16T02:35:31;100570.13;;;13.80;85.25
35577;BME280;21680;52.400;16.920;2022-10-16T02:37:57;100571.30;;;13.82;85.24
35577;BME280;21680;52.400;16.920;2022-10-16T02:40:23;100571.05;;;13.83;85.25
35577;BME280;21680;52.400;16.920;2022-10-16T02:42:53;100575.85;;;13.83;85.15
35577;BME280;21680;52.400;16.920;2022-10-16T02:45:19;100576.90;;;13.84;85.18
35577;BME280;21680;52.400;16.920;2022-10-16T02:47:45;100576.71;;;13.84;85.20
35577;BME280;21680;52.400;16.920;2022-10-16T02:50:10;100576.73;;;13.87;85.40
35577;BME280;21680;52.400;16.920;2022-10-16T02:52:35;100572.30;;;13.89;85.38
35577;BME280;21680;52.400;16.920;2022-10-16T02:55:00;100571.33;;;13.90;85.23
35577;BME280;21680;52.400;16.920;2022-10-16T02:57:26;100574.22;;;13.90;85.28
35577;BME280;21680;52.400;16.920;2022-10-16T02:59:51;100575.42;;;13.91;85.34
35577;BME280;21680;52.400;16.920;2022-10-16T03:02:16;100580.45;;;13.91;85.23
35577;BME280;21680;52.400;16.920;2022-10-16T03:04:42;100579.91;;;13.91;85.24
35577;BME280;21680;52.400;16.920;2022-10-16T03:07:07;100577.97;;;13.90;85.29
35577;BME280;21680;52.400;16.920;2022-10-16T03:09:32;100587.11;;;13.90;85.24
35577;BME280;21680;52.400;16.920;2022-10-16T03:11:58;100584.07;;;13.91;85.34
35577;BME280;21680;52.400;16.920;2022-10-16T03:14:23;100588.54;;;13.91;85.36
35577;BME280;21680;52.400;16.920;2022-10-16T03:16:49;100582.71;;;13.92;85.31
35577;BME280;21680;52.400;16.920;2022-10-16T03:19:16;100583.46;;;13.92;85.33
35577;BME280;21680;52.400;16.920;2022-10-16T03:21:41;100581.64;;;13.92;85.35
35577;BME280;21680;52.400;16.920;2022-10-16T03:24:06;100574.71;;;13.90;85.28
35577;BME280;21680;52.400;16.920;2022-10-16T03:26:31;100579.84;;;13.89;85.28
35577;BME280;21680;52.400;16.920;2022-10-16T03:28:57;100576.86;;;13.88;85.41
35577;BME280;21680;52.400;16.920;2022-10-16T03:31:22;100581.61;;;13.86;85.45
35577;BME280;21680;52.400;16.920;2022-10-16T03:33:47;100588.59;;;13.87;85.47
35577;BME280;21680;52.400;16.920;2022-10-16T03:36:12;100586.83;;;13.86;85.46
35577;BME280;21680;52.400;16.920;2022-10-16T03:38:37;100593.55;;;13.85;85.34
35577;BME280;21680;52.400;16.920;2022-10-16T03:41:03;100601.22;;;13.83;85.37
35577;BME280;21680;52.400;16.920;2022-10-16T03:43:29;100596.23;;;13.82;85.52
35577;BME280;21680;52.400;16.920;2022-10-16T03:45:54;100598.00;;;13.83;85.59
35577;BME280;21680;52.400;16.920;2022-10-16T03:48:20;100597.03;;;13.84;85.67
35577;BME280;21680;52.400;16.920;2022-10-16T03:50:45;100601.80;;;13.85;85.55
35577;BME280;21680;52.400;16.920;2022-10-16T03:53:13;100609.31;;;13.86;85.55
35577;BME280;21680;52.400;16.920;2022-10-16T03:55:38;100608.96;;;13.86;85.63
35577;BME280;21680;52.400;16.920;2022-10-16T03:58:03;100613.13;;;13.88;85.74
35577;BME280;21680;52.400;16.920;2022-10-16T04:00:28;100614.83;;;13.90;85.80
35577;BME280;21680;52.400;16.920;2022-10-16T04:02:53;100615.64;;;13.91;85.75
35577;BME280;21680;52.400;16.920;2022-10-16T04:05:18;100620.21;;;13.93;85.72
35577;BME280;21680;52.400;16.920;2022-10-16T04:07:45;100619.60;;;13.94;85.71
35577;BME280;21680;52.400;16.920;2022-10-16T04:10:10;100623.66;;;13.95;85.76
35577;BME280;21680;52.400;16.920;2022-10-16T04:12:36;100625.38;;;13.97;85.86
35577;BME280;21680;52.400;16.920;2022-10-16T04:15:02;100624.38;;;13.99;85.83
35577;BME280;21680;52.400;16.920;2022-10-16T04:17:27;100624.84;;;14.00;85.96
35577;BME280;21680;52.400;16.920;2022-10-16T04:19:52;100621.99;;;14.03;85.91
35577;BME280;21680;52.400;16.920;2022-10-16T04:22:18;100626.66;;;14.03;85.84
35577;BME280;21680;52.400;16.920;2022-10-16T04:24:43;100629.48;;;14.04;85.94
35577;BME280;21680;52.400;16.920;2022-10-16T04:27:08;100633.06;;;14.04;86.01
35577;BME280;21680;52.400;16.920;2022-10-16T04:29:33;100637.88;;;14.05;86.07
35577;BME280;21680;52.400;16.920;2022-10-16T04:31:58;100641.95;;;14.06;85.99
35577;BME280;21680;52.400;16.920;2022-10-16T04:34:24;100645.66;;;14.07;85.99
35577;BME280;21680;52.400;16.920;2022-10-16T04:36:49;100645.52;;;14.06;86.14
35577;BME280;21680;52.400;16.920;2022-10-16T04:39:15;100648.23;;;14.06;86.06
35577;BME280;21680;52.400;16.920;2022-10-16T04:41:40;100650.45;;;14.05;86.02
35577;BME280;21680;52.400;16.920;2022-10-16T04:44:05;100653.08;;;14.03;86.04
35577;BME280;21680;52.400;16.920;2022-10-16T04:46:30;100658.41;;;14.04;86.31
35577;BME280;21680;52.400;16.920;2022-10-16T04:48:55;100657.46;;;14.05;86.23
35577;BME280;21680;52.400;16.920;2022-10-16T04:51:21;100655.29;;;14.05;86.26
35577;BME280;21680;52.400;16.920;2022-10-16T04:53:46;100654.81;;;14.04;86.17
35577;BME280;21680;52.400;16.920;2022-10-16T04:56:11;100653.92;;;14.04;86.30
35577;BME280;21680;52.400;16.920;2022-10-16T04:58:36;100659.56;;;14.06;86.32
35577;BME280;21680;52.400;16.920;2022-10-16T05:01:02;100662.80;;;14.06;86.36
35577;BME280;21680;52.400;16.920;2022-10-16T05:03:27;100661.18;;;14.06;86.49
35577;BME280;21680;52.400;16.920;2022-10-16T05:05:52;100662.39;;;14.06;86.48
35577;BME280;21680;52.400;16.920;2022-10-16T05:08:17;100655.31;;;14.07;86.55
35577;BME280;21680;52.400;16.920;2022-10-16T05:10:43;100652.91;;;14.09;86.60
35577;BME280;21680;52.400;16.920;2022-10-16T05:13:09;100647.82;;;14.10;86.58
35577;BME280;21680;52.400;16.920;2022-10-16T05:15:35;100647.82;;;14.10;86.54
35577;BME280;21680;52.400;16.920;2022-10-16T05:18:00;100654.50;;;14.09;86.64
35577;BME280;21680;52.400;16.920;2022-10-16T05:20:26;100664.92;;;14.09;86.70
35577;BME280;21680;52.400;16.920;2022-10-16T05:22:51;100668.60;;;14.08;86.64
35577;BME280;21680;52.400;16.920;2022-10-16T05:25:18;100675.52;;;14.06;86.69
35577;BME280;21680;52.400;16.920;2022-10-16T05:27:46;100681.71;;;14.04;86.63
35577;BME280;21680;52.400;16.920;2022-10-16T05:30:12;100680.88;;;14.04;86.68
35577;BME280;21680;52.400;16.920;2022-10-16T05:32:37;100676.36;;;14.04;86.74
35577;BME280;21680;52.400;16.920;2022-10-16T05:35:03;100667.46;;;14.06;86.86
35577;BME280;21680;52.400;16.920;2022-10-16T05:37:28;100666.29;;;14.07;86.81
35577;BME280;21680;52.400;16.920;2022-10-16T05:39:53;100668.33;;;14.10;86.90
35577;BME280;21680;52.400;16.920;2022-10-16T05:42:18;100669.37;;;14.10;86.94
35577;BME280;21680;52.400;16.920;2022-10-16T05:44:44;100672.55;;;14.11;86.96
35577;BME280;21680;52.400;16.920;2022-10-16T05:47:09;100673.03;;;14.12;87.01
35577;BME280;21680;52.400;16.920;2022-10-16T05:49:35;100676.02;;;14.13;87.04
35577;BME280;21680;52.400;16.920;2022-10-16T05:52:01;100678.65;;;14.14;87.09
35577;BME280;21680;52.400;16.920;2022-10-16T05:54:26;100680.58;;;14.15;87.08
35577;BME280;21680;52.400;16.920;2022-10-16T05:56:51;100678.64;;;14.14;87.17
35577;BME280;21680;52.400;16.920;2022-10-16T05:59:16;100672.66;;;14.15;87.14
35577;BME280;21680;52.400;16.920;2022-10-16T06:01:42;100676.20;;;14.16;87.21
35577;BME280;21680;52.400;16.920;2022-10-16T06:04:08;100686.15;;;14.15;87.26
35577;BME280;21680;52.400;16.920;2022-10-16T06:06:33;100691.10;;;14.16;87.26
35577;BME280;21680;52.400;16.920;2022-10-16T06:08:58;100692.13;;;14.17;87.29
35577;BME280;21680;52.400;16.920;2022-10-16T06:11:27;100689.98;;;14.17;87.25
35577;BME280;21680;52.400;16.920;2022-10-16T06:13:55;100687.77;;;14.18;87.34
35577;BME280;21680;52.400;16.920;2022-10-16T06:16:26;100690.35;;;14.17;87.22
35577;BME280;21680;52.400;16.920;2022-10-16T06:18:55;100697.98;;;14.18;87.44
35577;BME280;21680;52.400;16.920;2022-10-16T06:21:23;100693.83;;;14.19;87.36
35577;BME280;21680;52.400;16.920;2022-10-16T06:23:50;100701.30;;;14.17;87.40
35577;BME280;21680;52.400;16.920;2022-10-16T06:26:18;100698.08;;;14.17;87.36
35577;BME280;21680;52.400;16.920;2022-10-16T06:28:44;100700.27;;;14.16;87.42
35577;BME280;21680;52.400;16.920;2022-10-16T06:31:10;100706.00;;;14.17;87.49
35577;BME280;21680;52.400;16.920;2022-10-16T06:33:37;100702.99;;;14.16;87.43
35577;BME280;21680;52.400;16.920;2022-10-16T06:36:10;100706.75;;;14.16;87.48
35577;BME280;21680;52.400;16.920;2022-10-16T06:38:37;100711.34;;;14.17;87.54
35577;BME280;21680;52.400;16.920;2022-10-16T06:41:03;100714.08;;;14.17;87.48
35577;BME280;21680;52.400;16.920;2022-10-16T06:43:29;100715.36;;;14.16;87.48
35577;BME280;21680;52.400;16.920;2022-10-16T06:45:58;100731.71;;;14.16;87.58
35577;BME280;21680;52.400;16.920;2022-10-16T06:48:24;100738.25;;;14.18;87.64
35577;BME280;21680;52.400;16.920;2022-10-16T06:50:59;100746.09;;;14.19;87.70
35577;BME280;21680;52.400;16.920;2022-10-16T06:53:26;100753.77;;;14.26;87.86
35577;BME280;21680;52.400;16.920;2022-10-16T06:55:52;100753.27;;;14.36;87.83
35577;BME280;21680;52.400;16.920;2022-10-16T06:58:18;100758.09;;;14.42;87.91
35577;BME280;21680;52.400;16.920;2022-10-16T07:00:43;100766.71;;;14.49;87.95
35577;BME280;21680;52.400;16.920;2022-10-16T07:03:08;100770.02;;;14.54;87.95
35577;BME280;21680;52.400;16.920;2022-10-16T07:05:40;100771.89;;;14.59;87.90
35577;BME280;21680;52.400;16.920;2022-10-16T07:08:06;100770.55;;;14.64;87.98
35577;BME280;21680;52.400;16.920;2022-10-16T07:10:32;100773.23;;;14.67;88.03
35577;BME280;21680;52.400;16.920;2022-10-16T07:12:57;100778.27;;;14.73;87.99
35577;BME280;21680;52.400;16.920;2022-10-16T07:15:24;100773.65;;;14.78;88.05
35577;BME280;21680;52.400;16.920;2022-10-16T07:17:49;100779.69;;;14.82;87.95
35577;BME280;21680;52.400;16.920;2022-10-16T07:20:14;100780.96;;;14.85;88.12
35577;BME280;21680;52.400;16.920;2022-10-16T07:22:40;100779.52;;;14.88;88.06
35577;BME280;21680;52.400;16.920;2022-10-16T07:25:05;100778.28;;;14.94;88.16
35577;BME280;21680;52.400;16.920;2022-10-16T07:27:31;100774.31;;;15.01;88.13
35577;BME280;21680;52.400;16.920;2022-10-16T07:29:56;100771.52;;;15.05;88.10
35577;BME280;21680;52.400;16.920;2022-10-16T07:32:21;100766.74;;;15.09;88.11
35577;BME280;21680;52.400;16.920;2022-10-16T07:34:47;100765.67;;;15.12;88.01
35577;BME280;21680;52.400;16.920;2022-10-16T07:37:12;100766.36;;;15.16;88.00
35577;BME280;21680;52.400;16.920;2022-10-16T07:39:37;100766.37;;;15.19;88.05
35577;BME280;21680;52.400;16.920;2022-10-16T07:42:02;100762.45;;;15.21;88.05
35577;BME280;21680;52.400;16.920;2022-10-16T07:44:27;100764.89;;;15.25;87.96
35577;BME280;21680;52.400;16.920;2022-10-16T07:46:53;100766.55;;;15.31;88.02
35577;BME280;21680;52.400;16.920;2022-10-16T07:49:18;100763.51;;;15.33;87.93
35577;BME280;21680;52.400;16.920;2022-10-16T07:51:44;100766.23;;;15.36;87.79
35577;BME280;21680;52.400;16.920;2022-10-16T07:54:10;100771.86;;;15.38;87.77
35577;BME280;21680;52.400;16.920;2022-10-16T07:56:35;100773.98;;;15.38;87.62
35577;BME280;21680;52.400;16.920;2022-10-16T07:59:00;100777.39;;;15.39;87.69
35577;BME280;21680;52.400;16.920;2022-10-16T08:01:26;100783.04;;;15.37;87.66
35577;BME280;21680;52.400;16.920;2022-10-16T08:03:51;100787.50;;;15.35;87.50
35577;BME280;21680;52.400;16.920;2022-10-16T08:06:18;100794.69;;;15.35;87.65
35577;BME280;21680;52.400;16.920;2022-10-16T08:08:44;100803.14;;;15.39;87.64
35577;BME280;21680;52.400;16.920;2022-10-16T08:11:09;100807.85;;;15.41;87.50
35577;BME280;21680;52.400;16.920;2022-10-16T08:13:35;100804.89;;;15.42;87.56
35577;BME280;21680;52.400;16.920;2022-10-16T08:16:00;100800.20;;;15.48;87.63
35577;BME280;21680;52.400;16.920;2022-10-16T08:18:26;100800.79;;;15.57;87.51
35577;BME280;21680;52.400;16.920;2022-10-16T08:20:56;100799.30;;;15.66;87.61
35577;BME280;21680;52.400;16.920;2022-10-16T08:23:22;100799.52;;;15.73;87.52
35577;BME280;21680;52.400;16.920;2022-10-16T08:25:48;100800.59;;;15.80;87.48
35577;BME280;21680;52.400;16.920;2022-10-16T08:28:13;100802.47;;;15.87;87.38
35577;BME280;21680;52.400;16.920;2022-10-16T08:30:38;100800.27;;;15.93;87.41
35577;BME280;21680;52.400;16.920;2022-10-16T08:33:04;100802.79;;;15.99;87.24
35577;BME280;21680;52.400;16.920;2022-10-16T08:35:29;100801.20;;;16.05;87.27
35577;BME280;21680;52.400;16.920;2022-10-16T08:37:55;100800.65;;;16.07;87.21
35577;BME280;21680;52.400;16.920;2022-10-16T08:40:24;100809.38;;;16.09;87.13
35577;BME280;21680;52.400;16.920;2022-10-16T08:45:50;100811.44;;;16.10;87.06
35577;BME280;21680;52.400;16.920;2022-10-16T08:48:37;100808.73;;;16.13;87.09
35577;BME280;21680;52.400;16.920;2022-10-16T08:51:18;100808.25;;;16.18;86.96
35577;BME280;21680;52.400;16.920;2022-10-16T08:53:56;100812.98;;;16.26;86.92
35577;BME280;21680;52.400;16.920;2022-10-16T08:56:22;100824.05;;;16.36;86.98
35577;BME280;21680;52.400;16.920;2022-10-16T08:58:49;100825.04;;;16.45;86.96
35577;BME280;21680;52.400;16.920;2022-10-16T09:01:16;100819.71;;;16.55;86.68
35577;BME280;21680;52.400;16.920;2022-10-16T09:06:28;100823.92;;;16.79;86.82
35577;BME280;21680;52.400;16.920;2022-10-16T09:11:57;100838.48;;;17.10;86.59
35577;BME280;21680;52.400;16.920;2022-10-16T09:17:46;100833.50;;;17.25;86.14
35577;BME280;21680;52.400;16.920;2022-10-16T09:20:30;100830.98;;;17.30;86.06
35577;BME280;21680;52.400;16.920;2022-10-16T09:23:30;100828.94;;;17.33;85.03
35577;BME280;21680;52.400;16.920;2022-10-16T09:25:58;100831.66;;;17.38;85.68
35577;BME280;21680;52.400;16.920;2022-10-16T09:28:24;100832.36;;;17.44;85.46
35577;BME280;21680;52.400;16.920;2022-10-16T09:30:50;100829.90;;;17.50;85.45
35577;BME280;21680;52.400;16.920;2022-10-16T09:33:18;100836.39;;;17.56;85.26
35577;BME280;21680;52.400;16.920;2022-10-16T09:35:47;100835.98;;;17.59;85.15
35577;BME280;21680;52.400;16.920;2022-10-16T09:38:31;100842.30;;;17.60;84.15
35577;BME280;21680;52.400;16.920;2022-10-16T09:40:58;100844.58;;;17.58;84.47
35577;BME280;21680;52.400;16.920;2022-10-16T09:43:35;100848.11;;;17.61;84.54
35577;BME280;21680;52.400;16.920;2022-10-16T09:46:19;100843.66;;;17.71;84.56
35577;BME280;21680;52.400;16.920;2022-10-16T09:48:51;100844.11;;;17.80;84.22
35577;BME280;21680;52.400;16.920;2022-10-16T09:51:30;100846.50;;;17.88;83.90
35577;BME280;21680;52.400;16.920;2022-10-16T09:56:34;100852.98;;;18.10;84.00
35577;BME280;21680;52.400;16.920;2022-10-16T09:59:14;100851.27;;;18.19;83.69
35577;BME280;21680;52.400;16.920;2022-10-16T10:01:44;100849.72;;;18.25;83.55
35577;BME280;21680;52.400;16.920;2022-10-16T10:04:11;100854.90;;;18.36;83.46
35577;BME280;21680;52.400;16.920;2022-10-16T10:06:41;100853.23;;;18.46;83.39
35577;BME280;21680;52.400;16.920;2022-10-16T10:09:28;100849.38;;;18.55;83.01
35577;BME280;21680;52.400;16.920;2022-10-16T10:12:00;100847.20;;;18.63;82.77
35577;BME280;21680;52.400;16.920;2022-10-16T10:17:16;100855.68;;;18.78;82.52
35577;BME280;21680;52.400;16.920;2022-10-16T10:19:47;100851.61;;;18.86;82.33
35577;BME280;21680;52.400;16.920;2022-10-16T10:25:39;100859.93;;;19.08;82.10
35577;BME280;21680;52.400;16.920;2022-10-16T10:30:44;100862.98;;;19.23;81.70
35577;BME280;21680;52.400;16.920;2022-10-16T10:38:36;100850.56;;;19.29;80.89
35577;BME280;21680;52.400;16.920;2022-10-16T10:41:27;100854.14;;;19.38;80.73
35577;BME280;21680;52.400;16.920;2022-10-16T10:44:05;100850.17;;;19.50;80.60
35577;BME280;21680;52.400;16.920;2022-10-16T10:50:03;100849.02;;;19.72;79.99
35577;BME280;21680;52.400;16.920;2022-10-16T10:52:43;100849.13;;;19.82;79.90
35577;BME280;21680;52.400;16.920;2022-10-16T10:55:41;100858.45;;;19.93;79.69
35577;BME280;21680;52.400;16.920;2022-10-16T10:58:20;100860.79;;;19.96;78.53
35577;BME280;21680;52.400;16.920;2022-10-16T11:01:11;100857.40;;;19.93;78.81
35577;BME280;21680;52.400;16.920;2022-10-16T11:04:05;100859.48;;;19.87;78.66
35577;BME280;21680;52.400;16.920;2022-10-16T11:06:58;100852.66;;;19.79;78.38
35577;BME280;21680;52.400;16.920;2022-10-16T11:09:28;100840.36;;;19.73;78.30
35577;BME280;21680;52.400;16.920;2022-10-16T11:12:05;100843.05;;;19.70;77.95
35577;BME280;21680;52.400;16.920;2022-10-16T11:14:38;100849.96;;;19.67;78.19
35577;BME280;21680;52.400;16.920;2022-10-16T11:17:16;100852.78;;;19.75;78.25
35577;BME280;21680;52.400;16.920;2022-10-16T11:19:51;100846.52;;;19.83;78.11
35577;BME280;21680;52.400;16.920;2022-10-16T11:22:23;100848.77;;;19.92;78.18
35577;BME280;21680;52.400;16.920;2022-10-16T11:25:00;100849.77;;;20.04;78.05
35577;BME280;21680;52.400;16.920;2022-10-16T11:27:57;100841.60;;;20.11;77.83
35577;BME280;21680;52.400;16.920;2022-10-16T11:30:31;100834.41;;;20.12;77.38
35577;BME280;21680;52.400;16.920;2022-10-16T11:35:44;100837.46;;;20.19;76.96
35577;BME280;21680;52.400;16.920;2022-10-16T11:41:35;100835.16;;;20.32;76.48
35577;BME280;21680;52.400;16.920;2022-10-16T11:47:27;100851.96;;;20.33;75.56
35577;BME280;21680;52.400;16.920;2022-10-16T11:50:19;100851.17;;;20.27;74.62
35577;BME280;21680;52.400;16.920;2022-10-16T11:53:08;100850.00;;;20.26;73.89
35577;BME280;21680;52.400;16.920;2022-10-16T11:55:40;100848.22;;;20.25;74.52
35577;BME280;21680;52.400;16.920;2022-10-16T12:01:01;100853.66;;;20.30;74.04
35577;BME280;21680;52.400;16.920;2022-10-16T12:03:52;100862.63;;;20.31;74.17
35577;BME280;21680;52.400;16.920;2022-10-16T12:06:33;100863.91;;;20.31;73.78
35577;BME280;21680;52.400;16.920;2022-10-16T12:09:00;100862.89;;;20.26;73.56
35577;BME280;21680;52.400;16.920;2022-10-16T12:14:03;100853.52;;;20.27;73.69
35577;BME280;21680;52.400;16.920;2022-10-16T12:16:28;100854.04;;;20.30;73.59
35577;BME280;21680;52.400;16.920;2022-10-16T12:19:24;100855.34;;;20.31;73.56
35577;BME280;21680;52.400;16.920;2022-10-16T12:21:52;100861.23;;;20.30;73.29
35577;BME280;21680;52.400;16.920;2022-10-16T12:24:58;100861.55;;;20.26;73.25
35577;BME280;21680;52.400;16.920;2022-10-16T12:27:33;100860.52;;;20.15;72.24
35577;BME280;21680;52.400;16.920;2022-10-16T12:30:00;100859.05;;;20.08;72.79
35577;BME280;21680;52.400;16.920;2022-10-16T12:32:38;100859.77;;;20.15;72.91
35577;BME280;21680;52.400;16.920;2022-10-16T12:35:16;100860.58;;;20.23;72.76
35577;BME280;21680;52.400;16.920;2022-10-16T12:37:44;100865.00;;;20.27;72.40
35577;BME280;21680;52.400;16.920;2022-10-16T12:40:15;100866.80;;;20.27;72.15
35577;BME280;21680;52.400;16.920;2022-10-16T12:42:41;100866.21;;;20.32;72.44
35577;BME280;21680;52.400;16.920;2022-10-16T12:45:33;100865.88;;;20.43;72.07
35577;BME280;21680;52.400;16.920;2022-10-16T12:48:01;100870.60;;;20.54;71.67
35577;BME280;21680;52.400;16.920;2022-10-16T12:52:56;100878.05;;;21.00;71.55
35577;BME280;21680;52.400;16.920;2022-10-16T12:55:23;100868.77;;;21.45;70.09
35577;BME280;21680;52.400;16.920;2022-10-16T12:58:03;100862.83;;;21.78;69.84
35577;BME280;21680;52.400;16.920;2022-10-16T13:03:54;100869.05;;;22.26;67.21
35577;BME280;21680;52.400;16.920;2022-10-16T13:06:35;100880.71;;;22.23;66.57
35577;BME280;21680;52.400;16.920;2022-10-16T13:09:31;100886.85;;;22.12;66.94
35577;BME280;21680;52.400;16.920;2022-10-16T13:12:27;100889.60;;;21.89;66.94
35577;BME280;21680;52.400;16.920;2022-10-16T13:25:32;100898.13;;;21.07;66.80
35577;BME280;21680;52.400;16.920;2022-10-16T13:28:04;100900.30;;;21.16;66.49
35577;BME280;21680;52.400;16.920;2022-10-16T13:30:34;100901.27;;;21.26;66.43
35577;BME280;21680;52.400;16.920;2022-10-16T13:33:16;100900.05;;;21.32;66.17
35577;BME280;21680;52.400;16.920;2022-10-16T13:35:51;100896.77;;;21.30;66.31
35577;BME280;21680;52.400;16.920;2022-10-16T13:38:20;100898.42;;;21.34;66.58
35577;BME280;21680;52.400;16.920;2022-10-16T13:40:56;100908.41;;;21.26;65.89
35577;BME280;21680;52.400;16.920;2022-10-16T13:43:34;100909.35;;;21.08;66.14
35577;BME280;21680;52.400;16.920;2022-10-16T13:46:12;100913.16;;;20.95;66.15
35577;BME280;21680;52.400;16.920;2022-10-16T13:48:38;100915.27;;;20.91;66.33
35577;BME280;21680;52.400;16.920;2022-10-16T13:51:15;100917.98;;;20.94;66.40
35577;BME280;21680;52.400;16.920;2022-10-16T13:53:41;100927.77;;;20.94;66.34
35577;BME280;21680;52.400;16.920;2022-10-16T13:56:15;100934.48;;;20.90;66.33
35577;BME280;21680;52.400;16.920;2022-10-16T13:58:42;100936.07;;;20.84;66.24
35577;BME280;21680;52.400;16.920;2022-10-16T14:01:28;100938.27;;;20.79;66.34